Time;durP1;ratioP1;P1;durP2;ratioP2;P2;SDS_P1;SDS_P2;PMS_P1;PMS_P2;Temp;Humidity;BMP_temperature;BMP_pressure;BME280_temperature;BME280_humidity;BME280_pressure;Samples;Min_cycle;Max_cycle;Signal;HPM_P1;HPM_P2
2024/01/14 00:01:56;;;;;;;3.60;2.25;;;;;;;-1.77;100.00;92357.13;5034320;28;20068;-77
2024/01/14 00:04:22;;;;;;;4.00;2.50;;;;;;;-1.77;100.00;92354.56;5033158;28;20037;-77
2024/01/14 00:06:49;;;;;;;4.35;2.55;;;;;;;-1.78;100.00;92347.06;5033730;28;20091;-77
2024/01/14 00:09:19;;;;;;;4.55;2.60;;;;;;;-1.80;100.00;92338.81;5032650;28;20068;-77
2024/01/14 00:11:45;;;;;;;4.57;2.70;;;;;;;-1.80;100.00;92341.38;5033582;28;20049;-78
2024/01/14 00:14:10;;;;;;;5.10;2.90;;;;;;;-1.80;100.00;92343.94;5031677;28;20042;-77
2024/01/14 00:16:36;;;;;;;4.55;2.63;;;;;;;-1.81;100.00;92337.25;5016530;28;20034;-78
2024/01/14 00:19:03;;;;;;;4.13;2.38;;;;;;;-1.85;100.00;92320.72;5034677;28;20048;-77
2024/01/14 00:21:29;;;;;;;3.97;2.50;;;;;;;-1.83;100.00;92326.41;5032182;28;20037;-77
2024/01/14 00:23:55;;;;;;;4.30;2.55;;;;;;;-1.81;100.00;92321.84;5034272;28;20167;-78
2024/01/14 00:26:20;;;;;;;4.30;2.50;;;;;;;-1.82;100.00;92315.94;5036455;28;20024;-77
2024/01/14 00:28:47;;;;;;;5.35;2.63;;;;;;;-1.85;100.00;92318.91;5033253;28;20072;-77
2024/01/14 00:31:12;;;;;;;4.45;2.67;;;;;;;-1.83;100.00;92316.91;5012483;28;20022;-77
2024/01/14 00:33:40;;;;;;;4.78;2.70;;;;;;;-1.84;100.00;92317.16;5031187;28;20047;-77
2024/01/14 00:36:07;;;;;;;4.53;2.58;;;;;;;-1.85;100.00;92310.44;5033524;28;20044;-78
2024/01/14 00:38:32;;;;;;;5.55;2.90;;;;;;;-1.86;100.00;92309.66;5033214;28;20044;-77
2024/01/14 00:40:58;;;;;;;5.93;2.78;;;;;;;-1.88;100.00;92303.97;5033141;28;20029;-77
2024/01/14 00:43:24;;;;;;;4.13;2.47;;;;;;;-1.89;100.00;92300.63;5029572;28;20523;-78
2024/01/14 00:45:49;;;;;;;5.75;3.00;;;;;;;-1.88;100.00;92291.91;5029250;28;20039;-77
2024/01/14 00:48:15;;;;;;;4.40;2.67;;;;;;;-1.89;100.00;92290.34;5033653;28;20041;-78
2024/01/14 00:50:41;;;;;;;5.00;2.88;;;;;;;-1.94;100.00;92281.72;5032154;28;20030;-77
2024/01/14 00:53:06;;;;;;;4.82;3.03;;;;;;;-1.93;100.00;92276.38;5028574;28;20048;-77
2024/01/14 00:55:32;;;;;;;5.10;2.63;;;;;;;-1.95;100.00;92283.50;5028933;28;20075;-78
2024/01/14 00:57:57;;;;;;;5.40;2.88;;;;;;;-1.98;100.00;92272.88;5033237;28;20128;-77
2024/01/14 01:00:24;;;;;;;4.00;2.50;;;;;;;-2.08;100.00;92258.00;5034611;28;20041;-78
2024/01/14 01:02:50;;;;;;;4.53;2.60;;;;;;;-1.95;100.00;92269.91;5025733;28;20048;-78
2024/01/14 01:05:19;;;;;;;4.50;2.80;;;;;;;-1.96;100.00;92266.56;5031400;28;20088;-78
2024/01/14 01:07:45;;;;;;;4.45;2.72;;;;;;;-1.94;100.00;92272.22;5033212;28;20424;-77
2024/01/14 01:10:11;;;;;;;4.38;2.65;;;;;;;-1.95;100.00;92264.78;5033735;28;20045;-78
2024/01/14 01:12:37;;;;;;;5.03;2.90;;;;;;;-1.97;100.00;92267.53;5032661;28;20493;-78
2024/01/14 01:15:05;;;;;;;5.25;2.58;;;;;;;-1.97;100.00;92266.75;5033613;28;20049;-78
2024/01/14 01:17:31;;;;;;;3.78;2.40;;;;;;;-1.97;100.00;92264.19;5033128;28;20124;-78
2024/01/14 01:19:59;;;;;;;4.80;2.25;;;;;;;-1.97;100.00;92259.84;5030958;28;20116;-78
2024/01/14 01:22:24;;;;;;;3.60;2.38;;;;;;;-1.98;100.00;92260.84;5034192;28;20100;-78
2024/01/14 01:24:50;;;;;;;4.35;2.50;;;;;;;-1.98;100.00;92250.59;5034860;28;20067;-78
2024/01/14 01:27:15;;;;;;;4.43;2.40;;;;;;;-1.97;100.00;92252.16;5032299;28;20037;-78
2024/01/14 01:29:41;;;;;;;4.47;2.60;;;;;;;-1.99;100.00;92246.44;5032089;28;20029;-78
2024/01/14 01:32:07;;;;;;;4.82;2.88;;;;;;;-1.97;100.00;92241.09;5034568;28;20034;-78
2024/01/14 01:34:32;;;;;;;3.70;2.30;;;;;;;-1.94;100.00;92244.00;5033697;28;20025;-78
2024/01/14 01:36:58;;;;;;;3.88;2.40;;;;;;;-1.95;100.00;92250.16;5032570;28;20493;-78
2024/01/14 01:39:23;;;;;;;3.92;2.08;;;;;;;-1.96;100.00;92240.09;5033551;28;20033;-78
2024/01/14 01:41:50;;;;;;;4.18;2.38;;;;;;;-1.99;100.00;92246.44;5033736;28;20155;-78
2024/01/14 01:44:15;;;;;;;3.67;2.22;;;;;;;-2.02;100.00;92244.31;5033595;28;20301;-78
2024/01/14 01:46:42;;;;;;;3.58;2.35;;;;;;;-2.02;100.00;92248.69;5032755;28;20347;-78
2024/01/14 01:49:09;;;;;;;3.40;1.92;;;;;;;-2.03;100.00;92245.31;5033879;28;20667;-78
2024/01/14 01:51:36;;;;;;;3.33;2.00;;;;;;;-2.04;100.00;92248.88;5032242;28;20056;-78
2024/01/14 01:54:01;;;;;;;5.15;2.13;;;;;;;-2.03;100.00;92247.09;5016419;28;20064;-78
2024/01/14 01:56:27;;;;;;;3.92;2.17;;;;;;;-2.10;100.00;92224.84;5032376;28;20401;-78
2024/01/14 01:58:53;;;;;;;4.35;2.42;;;;;;;-2.08;100.00;92229.78;5033543;28;20058;-78
2024/01/14 02:01:21;;;;;;;3.53;2.20;;;;;;;-2.06;100.00;92238.06;5033099;28;20049;-78
2024/01/14 02:03:50;;;;;;;3.92;2.20;;;;;;;-2.06;100.00;92238.06;5033949;28;20038;-78
2024/01/14 02:06:16;;;;;;;3.08;1.90;;;;;;;-2.06;100.00;92235.47;5030397;28;20029;-78
2024/01/14 02:08:42;;;;;;;5.20;2.10;;;;;;;-2.09;100.00;92225.66;5032420;28;20049;-78
2024/01/14 02:11:08;;;;;;;3.30;2.00;;;;;;;-2.11;100.00;92227.66;5025591;28;20289;-78
2024/01/14 02:13:34;;;;;;;4.90;1.90;;;;;;;-2.13;100.00;92221.97;5027585;28;20025;-78
2024/01/14 02:15:59;;;;;;;2.90;1.90;;;;;;;-2.15;100.00;92224.72;5032469;28;20033;-78
2024/01/14 02:18:25;;;;;;;3.03;1.85;;;;;;;-2.15;100.00;92221.38;5025593;28;20042;-78
2024/01/14 02:20:51;;;;;;;2.47;1.50;;;;;;;-2.15;100.00;92222.16;5029794;28;20552;-78
2024/01/14 02:23:21;;;;;;;3.13;1.80;;;;;;;-2.13;100.00;92216.84;5014905;28;20037;-78
2024/01/14 02:25:47;;;;;;;3.10;1.83;;;;;;;-2.09;100.00;92212.84;5032942;28;20801;-78
2024/01/14 02:28:14;;;;;;;2.72;1.77;;;;;;;-2.08;100.00;92218.75;5033056;28;20033;-78
2024/01/14 02:30:40;;;;;;;3.58;2.30;;;;;;;-2.08;100.00;92206.69;5040348;28;20037;-78
2024/01/14 02:33:07;;;;;;;4.05;2.30;;;;;;;-2.08;100.00;92206.69;5025673;28;20040;-78
2024/01/14 02:35:32;;;;;;;4.07;2.55;;;;;;;-2.07;100.00;92205.72;5038510;28;20515;-78
2024/01/14 02:37:58;;;;;;;4.72;2.50;;;;;;;-2.04;100.00;92204.50;5036879;28;20401;-78
2024/01/14 02:40:23;;;;;;;4.53;2.47;;;;;;;-2.00;100.00;92201.28;5024979;28;20393;-78
2024/01/14 02:42:49;;;;;;;5.00;3.13;;;;;;;-2.03;100.00;92196.56;5030454;28;20137;-78
2024/01/14 02:45:15;;;;;;;5.47;2.42;;;;;;;-2.03;100.00;92196.56;5031530;28;20103;-78
2024/01/14 02:47:41;;;;;;;5.43;2.70;;;;;;;-2.02;100.00;92198.16;5032938;28;20068;-78
2024/01/14 02:50:07;;;;;;;4.60;2.63;;;;;;;-2.08;100.00;92193.88;5032192;28;20132;-78
2024/01/14 02:52:32;;;;;;;4.20;2.55;;;;;;;-2.07;100.00;92195.47;5023301;28;20037;-78
2024/01/14 02:54:59;;;;;;;5.53;2.42;;;;;;;-2.06;100.00;92191.09;5022857;28;20030;-78
2024/01/14 02:57:24;;;;;;;5.43;2.50;;;;;;;-2.07;100.00;92186.94;5028563;28;20076;-78
2024/01/14 02:59:50;;;;;;;4.60;2.58;;;;;;;-2.06;100.00;92189.31;5037103;28;20041;-79
2024/01/14 03:02:16;;;;;;;3.60;2.22;;;;;;;-2.06;100.00;92191.09;5027588;28;20053;-78
2024/01/14 03:04:42;;;;;;;4.88;2.55;;;;;;;-2.07;100.00;92180.06;5031013;28;20029;-78
2024/01/14 03:07:08;;;;;;;10.30;2.50;;;;;;;-2.07;100.00;92180.06;5028041;28;20033;-78
2024/01/14 03:09:34;;;;;;;4.72;2.70;;;;;;;-2.08;100.00;92173.34;5026210;28;20061;-78
2024/01/14 03:11:59;;;;;;;3.55;2.10;;;;;;;-2.16;100.00;92163.38;5032462;28;20041;-77
2024/01/14 03:14:25;;;;;;;3.67;2.30;;;;;;;-2.13;100.00;92171.44;5030974;28;20021;-78
2024/01/14 03:16:50;;;;;;;4.57;2.45;;;;;;;-2.14;100.00;92171.66;5039550;28;20043;-78
2024/01/14 03:19:16;;;;;;;3.92;2.13;;;;;;;-2.13;100.00;92170.66;5032070;28;20129;-78
2024/01/14 03:21:42;;;;;;;3.50;2.20;;;;;;;-2.15;100.00;92167.53;5037044;28;20036;-78
2024/01/14 03:24:08;;;;;;;3.78;2.15;;;;;;;-2.15;100.00;92159.84;5031316;28;20038;-78
2024/01/14 03:26:33;;;;;;;4.10;2.35;;;;;;;-2.16;100.00;92160.81;5032410;28;20174;-77
2024/01/14 03:28:59;;;;;;;4.65;2.25;;;;;;;-2.18;100.00;92160.28;5035042;28;20041;-78
2024/01/14 03:31:25;;;;;;;3.20;2.00;;;;;;;-2.25;100.00;92147.53;5027080;28;20030;-78
2024/01/14 03:33:50;;;;;;;4.70;2.58;;;;;;;-2.25;100.00;92144.16;5033257;28;20034;-78
2024/01/14 03:36:16;;;;;;;4.18;2.30;;;;;;;-2.23;100.00;92144.75;5031100;28;20486;-78
2024/01/14 03:38:42;;;;;;;4.10;2.40;;;;;;;-2.23;100.00;92140.41;5034255;28;20109;-78
2024/01/14 03:41:08;;;;;;;4.20;2.20;;;;;;;-2.30;100.00;92126.88;5030723;28;20056;-78
2024/01/14 03:43:33;;;;;;;3.45;2.28;;;;;;;-2.23;100.00;92140.41;5033264;28;20029;-78
2024/01/14 03:45:59;;;;;;;3.90;2.10;;;;;;;-2.24;100.00;92131.13;5039650;28;20048;-78
2024/01/14 03:48:25;;;;;;;4.55;2.22;;;;;;;-2.24;100.00;92126.00;5033476;28;20074;-78
2024/01/14 03:50:50;;;;;;;3.55;2.03;;;;;;;-2.24;100.00;92133.69;5034960;28;20214;-78
2024/01/14 03:53:16;;;;;;;4.18;2.10;;;;;;;-2.23;100.00;92131.91;5036050;28;20512;-78
2024/01/14 03:55:42;;;;;;;4.47;2.25;;;;;;;-2.28;100.00;92117.19;5034703;28;20025;-78
2024/01/14 03:58:08;;;;;;;3.40;1.88;;;;;;;-2.27;100.00;92112.81;5033853;28;20261;-78
2024/01/14 04:00:33;;;;;;;4.07;2.10;;;;;;;-2.28;100.00;92111.28;5034322;28;20039;-78
2024/01/14 04:02:59;;;;;;;3.67;1.98;;;;;;;-2.30;100.00;92114.03;5032603;28;20049;-78
2024/01/14 04:05:24;;;;;;;3.42;1.85;;;;;;;-2.31;100.00;92115.84;5029670;28;20116;-77
2024/01/14 04:07:50;;;;;;;5.78;2.03;;;;;;;-2.33;100.00;92115.28;5030646;28;20113;-78
2024/01/14 04:10:16;;;;;;;3.17;1.75;;;;;;;-2.32;100.00;92121.16;5033967;28;20447;-78
2024/01/14 04:12:42;;;;;;;3.63;2.00;;;;;;;-2.34;100.00;92118.06;5033864;28;20040;-78
2024/01/14 04:15:08;;;;;;;3.53;2.13;;;;;;;-2.32;100.00;92116.84;5034272;28;20031;-78
2024/01/14 04:17:34;;;;;;;4.20;1.95;;;;;;;-2.31;100.00;92118.41;5033455;28;20143;-78
2024/01/14 04:20:00;;;;;;;3.70;2.17;;;;;;;-2.28;100.00;92114.63;5033126;28;20049;-78
2024/01/14 04:22:26;;;;;;;3.83;2.25;;;;;;;-2.26;100.00;92119.53;5031903;28;20037;-78
2024/01/14 04:24:52;;;;;;;4.10;2.40;;;;;;;-2.25;100.00;92121.91;5034541;28;20527;-78
2024/01/14 04:27:17;;;;;;;4.63;2.35;;;;;;;-2.23;100.00;92125.03;5035044;28;20044;-78
2024/01/14 04:29:43;;;;;;;3.72;2.17;;;;;;;-2.28;100.00;92106.16;5032626;28;20029;-78
2024/01/14 04:32:08;;;;;;;3.60;2.20;;;;;;;-2.24;100.00;92122.66;5034439;28;20207;-78
2024/01/14 04:34:34;;;;;;;3.70;2.00;;;;;;;-2.25;100.00;92121.91;5033249;28;20032;-78
2024/01/14 04:37:00;;;;;;;3.90;2.13;;;;;;;-2.27;100.00;92117.97;5033042;28;20037;-78
2024/01/14 04:39:25;;;;;;;3.60;2.10;;;;;;;-2.31;100.00;92113.28;5034143;28;20470;-77
2024/01/14 04:41:52;;;;;;;4.05;2.20;;;;;;;-2.33;100.00;92117.84;5033529;28;20038;-77
2024/01/14 04:44:18;;;;;;;3.80;2.13;;;;;;;-2.35;100.00;92106.22;5034178;28;20037;-78
2024/01/14 04:46:45;;;;;;;5.15;2.35;;;;;;;-2.37;100.00;92116.69;5031956;28;20064;-78
2024/01/14 04:49:10;;;;;;;3.78;2.22;;;;;;;-2.38;100.00;92112.56;5034313;28;20037;-78
2024/01/14 04:51:36;;;;;;;3.60;2.03;;;;;;;-2.38;100.00;92112.56;5032432;28;20107;-78
2024/01/14 04:54:04;;;;;;;4.18;2.17;;;;;;;-2.41;100.00;92115.59;5026369;28;20032;-78
2024/01/14 04:56:30;;;;;;;5.28;2.42;;;;;;;-2.40;100.00;92124.81;5033846;28;20041;-77
2024/01/14 04:58:56;;;;;;;5.03;2.20;;;;;;;-2.41;100.00;92118.16;5025494;28;20052;-78
2024/01/14 05:01:22;;;;;;;4.20;2.10;;;;;;;-2.43;100.00;92120.16;5033111;28;20037;-78
2024/01/14 05:03:47;;;;;;;4.28;2.38;;;;;;;-2.42;100.00;92115.78;5027048;28;20473;-78
2024/01/14 05:06:13;;;;;;;3.97;2.17;;;;;;;-2.42;100.00;92116.56;5029678;28;20335;-78
2024/01/14 05:08:42;;;;;;;4.00;2.08;;;;;;;-2.39;100.00;92121.25;5033467;28;20045;-78
2024/01/14 05:11:08;;;;;;;3.95;2.30;;;;;;;-2.39;100.00;92115.34;5031103;28;20041;-79
2024/01/14 05:13:34;;;;;;;4.15;2.33;;;;;;;-2.38;100.00;92104.13;5024969;28;20034;-78
2024/01/14 05:16:00;;;;;;;4.05;2.28;;;;;;;-2.37;100.00;92111.56;5027829;28;20535;-77
2024/01/14 05:18:25;;;;;;;3.70;2.10;;;;;;;-2.38;100.00;92116.94;5033374;28;20029;-77
2024/01/14 05:20:52;;;;;;;3.97;2.38;;;;;;;-2.38;100.00;92117.72;5032075;28;20033;-78
2024/01/14 05:23:18;;;;;;;4.47;2.13;;;;;;;-2.35;100.00;92107.00;5029480;28;20057;-77
2024/01/14 05:25:43;;;;;;;3.58;2.00;;;;;;;-2.35;100.00;92116.50;5032051;28;20068;-77
2024/01/14 05:28:09;;;;;;;2.90;1.88;;;;;;;-2.35;100.00;92119.81;5030018;28;20244;-78
2024/01/14 05:30:34;;;;;;;3.40;1.85;;;;;;;-2.37;100.00;92118.47;5030999;28;20037;-78
2024/01/14 05:33:01;;;;;;;3.58;2.20;;;;;;;-2.35;100.00;92122.38;5029677;28;20040;-78
2024/01/14 05:35:26;;;;;;;3.83;2.10;;;;;;;-2.39;100.00;92105.88;5031072;28;20041;-78
2024/01/14 05:37:52;;;;;;;3.40;2.05;;;;;;;-2.34;100.00;92112.94;4998941;28;20064;-78
2024/01/14 05:40:18;;;;;;;4.03;2.03;;;;;;;-2.34;100.00;92113.72;5033029;28;20025;-78
2024/01/14 05:42:45;;;;;;;3.38;2.00;;;;;;;-2.33;100.00;92110.13;5033250;28;20059;-78
2024/01/14 05:45:12;;;;;;;3.70;2.20;;;;;;;-2.34;100.00;92113.72;5032574;28;20493;-78
2024/01/14 05:47:38;;;;;;;4.25;2.30;;;;;;;-2.32;100.00;92114.28;5031752;28;20033;-78
2024/01/14 05:50:04;;;;;;;4.45;2.40;;;;;;;-2.35;100.00;92106.22;5027448;28;20061;-78
2024/01/14 05:52:30;;;;;;;3.92;2.30;;;;;;;-2.32;100.00;92121.97;5022988;28;20037;-78
2024/01/14 05:54:55;;;;;;;3.72;2.20;;;;;;;-2.34;100.00;92118.84;5022656;28;20088;-77
2024/01/14 05:57:22;;;;;;;3.95;2.00;;;;;;;-2.36;100.00;92120.06;5020613;28;20037;-77
2024/01/14 05:59:47;;;;;;;3.83;2.05;;;;;;;-2.37;100.00;92126.94;5026523;28;20521;-77
2024/01/14 06:02:13;;;;;;;3.67;2.20;;;;;;;-2.39;100.00;92126.38;5021182;28;20040;-77
2024/01/14 06:04:39;;;;;;;4.25;2.25;;;;;;;-2.39;100.00;92128.16;5027198;28;20122;-78
2024/01/14 06:07:04;;;;;;;4.63;2.58;;;;;;;-2.41;100.00;92120.72;5024840;28;20065;-77
2024/01/14 06:09:30;;;;;;;4.13;2.30;;;;;;;-2.40;100.00;92127.38;5000736;28;20034;-77
2024/01/14 06:11:56;;;;;;;3.72;2.33;;;;;;;-2.40;100.00;92119.69;5021723;28;20052;-77
2024/01/14 06:14:21;;;;;;;3.88;2.10;;;;;;;-2.43;100.00;92125.28;5022003;28;20041;-78
2024/01/14 06:16:47;;;;;;;2.88;1.95;;;;;;;-2.45;100.00;92121.34;5027226;28;20378;-77
2024/01/14 06:19:12;;;;;;;5.03;2.45;;;;;;;-2.46;100.00;92120.56;5028641;28;20378;-77
2024/01/14 06:21:41;;;;;;;3.67;2.20;;;;;;;-2.47;100.00;92123.34;5022765;28;20041;-77
2024/01/14 06:24:07;;;;;;;3.90;2.10;;;;;;;-2.49;100.00;92125.34;5026956;28;20566;-77
2024/01/14 06:26:33;;;;;;;3.17;1.90;;;;;;;-2.50;100.00;92119.41;5027741;28;20029;-77
2024/01/14 06:28:58;;;;;;;5.88;2.08;;;;;;;-2.48;100.00;92125.09;5026542;28;20038;-77
2024/01/14 06:31:24;;;;;;;3.45;2.05;;;;;;;-2.47;100.00;92128.47;5025376;28;20029;-77
2024/01/14 06:33:50;;;;;;;3.45;2.00;;;;;;;-2.46;100.00;92135.94;5026337;28;20048;-77
2024/01/14 06:36:18;;;;;;;3.88;2.20;;;;;;;-2.48;100.00;92134.59;5025604;28;20443;-77
2024/01/14 06:38:44;;;;;;;3.83;2.28;;;;;;;-2.46;100.00;92135.16;5023805;28;20041;-77
2024/01/14 06:41:16;;;;;;;3.55;2.10;;;;;;;-2.46;100.00;92130.81;5026067;28;20037;-77
2024/01/14 06:43:42;;;;;;;;;;;;;;;-2.42;100.00;92134.50;5026555;28;20063;-77
2024/01/14 06:46:07;;;;;;;2.65;1.70;;;;;;;-2.43;100.00;92130.41;5028450;28;19964;-77
2024/01/14 06:48:33;;;;;;;2.90;1.80;;;;;;;-2.42;100.00;92137.06;5024353;28;20063;-78
2024/01/14 06:51:00;;;;;;;3.65;2.00;;;;;;;-2.41;100.00;92138.66;5020943;28;20484;-79
2024/01/14 06:53:25;;;;;;;3.25;1.75;;;;;;;-2.41;100.00;92133.53;5032391;28;20117;-79
2024/01/14 06:55:52;;;;;;;3.17;1.92;;;;;;;-2.41;100.00;92130.16;5028470;28;20049;-79
2024/01/14 06:58:17;;;;;;;3.45;2.10;;;;;;;-2.41;100.00;92128.41;5031871;28;20034;-78
2024/01/14 07:00:44;;;;;;;3.30;2.00;;;;;;;-2.35;100.00;92124.94;5031445;28;20029;-77
2024/01/14 07:03:10;;;;;;;3.95;2.28;;;;;;;-2.29;100.00;92127.69;5031117;28;20045;-78
2024/01/14 07:05:35;;;;;;;3.92;2.25;;;;;;;-2.26;100.00;92124.66;5022777;28;20080;-78
2024/01/14 07:08:02;;;;;;;5.22;2.40;;;;;;;-2.24;100.00;92122.66;5028290;28;20558;-78
2024/01/14 07:10:28;;;;;;;4.28;2.30;;;;;;;-2.20;100.00;92123.81;5024330;28;20029;-78
2024/01/14 07:12:54;;;;;;;4.88;2.00;;;;;;;-2.17;100.00;92107.97;5028010;28;20183;-78
2024/01/14 07:15:19;;;;;;;4.03;1.98;;;;;;;-2.16;100.00;92096.69;5028873;28;20124;-79
2024/01/14 07:17:45;;;;;;;4.05;2.38;;;;;;;-2.02;100.00;92105.81;5021976;28;20067;-79
2024/01/14 07:20:11;;;;;;;4.07;2.33;;;;;;;-1.88;100.00;92093.56;5026971;28;20073;-79
2024/01/14 07:22:37;;;;;;;3.50;2.13;;;;;;;-1.76;100.00;92094.34;5021402;28;20144;-78
2024/01/14 07:25:04;;;;;;;3.53;2.10;;;;;;;-1.65;100.00;92092.03;5025619;28;20056;-78
2024/01/14 07:27:30;;;;;;;5.43;2.00;;;;;;;-1.29;100.00;92091.84;5024872;28;20044;-79
2024/01/14 07:29:56;;;;;;;4.10;2.28;;;;;;;-0.07;100.00;92091.94;5032348;28;20033;-77
2024/01/14 07:32:22;;;;;;;3.92;2.17;;;;;;;1.18;100.00;92089.22;5021245;28;20314;-78
2024/01/14 07:34:47;;;;;;;3.97;2.17;;;;;;;2.08;100.00;92093.09;5033658;28;20091;-80
2024/01/14 07:37:13;;;;;;;3.75;2.10;;;;;;;2.61;100.00;92087.34;5027090;28;20591;-75
2024/01/14 07:39:38;;;;;;;2.95;2.10;;;;;;;3.42;99.58;92084.47;5025595;28;20021;-78
2024/01/14 07:42:05;;;;;;;3.58;2.00;;;;;;;3.74;93.19;92081.03;5023697;28;20153;-76
2024/01/14 07:44:30;;;;;;;3.58;1.95;;;;;;;4.23;87.13;92078.00;5031546;28;20110;-76
2024/01/14 07:46:56;;;;;;;5.72;2.10;;;;;;;4.73;81.91;92071.34;5031155;28;20124;-80
2024/01/14 07:49:21;;;;;;;3.40;1.92;;;;;;;4.76;70.43;92076.00;5033673;28;20041;-79
2024/01/14 07:51:47;;;;;;;3.78;2.00;;;;;;;4.34;69.84;92069.22;5032969;28;20067;-77
2024/01/14 07:54:12;;;;;;;2.53;1.60;;;;;;;3.93;72.03;92079.50;5031605;28;20033;-78
2024/01/14 07:56:39;;;;;;;3.55;1.88;;;;;;;3.57;74.70;92075.25;5030497;28;20072;-78
2024/01/14 07:59:04;;;;;;;5.97;2.10;;;;;;;3.23;74.21;92096.31;5025289;28;20108;-76
2024/01/14 08:01:30;;;;;;;3.03;1.50;;;;;;;2.94;75.72;92094.06;5024950;28;20041;-76
2024/01/14 08:03:55;;;;;;;2.53;1.50;;;;;;;2.83;75.34;92088.03;5027859;28;20033;-76
2024/01/14 08:06:24;;;;;;;2.60;1.50;;;;;;;2.59;77.57;92092.78;5026889;28;20030;-77
2024/01/14 08:08:49;;;;;;;4.22;1.73;;;;;;;2.52;78.00;92094.00;5026511;28;20533;-77
2024/01/14 08:11:16;;;;;;;4.70;1.88;;;;;;;2.42;80.60;92086.94;5028743;28;20029;-76
2024/01/14 08:13:42;;;;;;;2.42;1.70;;;;;;;2.39;81.29;92090.03;5031314;28;20091;-77
2024/01/14 08:16:08;;;;;;;2.28;1.50;;;;;;;2.40;81.55;92086.41;5031323;28;20587;-77
2024/01/14 08:18:33;;;;;;;4.25;2.60;;;;;;;2.37;81.76;92084.31;5033520;28;20037;-76
2024/01/14 08:21:00;;;;;;;5.00;2.90;;;;;;;2.27;81.67;92085.78;5024578;28;20033;-77
2024/01/14 08:23:26;;;;;;;2.97;2.00;;;;;;;2.20;83.18;92090.34;5023562;28;20052;-75
2024/01/14 08:25:52;;;;;;;3.05;1.75;;;;;;;2.01;85.60;92083.97;5029833;28;20111;-76
2024/01/14 08:28:18;;;;;;;2.53;1.60;;;;;;;2.00;86.89;92100.47;5022319;28;20037;-75
2024/01/14 08:30:43;;;;;;;3.00;1.50;;;;;;;1.92;86.96;92108.69;5024758;28;20662;-76
2024/01/14 08:33:09;;;;;;;2.67;1.67;;;;;;;1.91;88.44;92107.88;5024186;28;20068;-75
2024/01/14 08:35:35;;;;;;;2.70;1.50;;;;;;;1.87;87.70;92102.44;5019366;28;20377;-76
2024/01/14 08:38:00;;;;;;;2.63;1.60;;;;;;;1.94;87.80;92116.97;5023134;28;20049;-76
2024/01/14 08:40:26;;;;;;;2.47;1.67;;;;;;;1.87;87.94;92099.84;5024784;28;20524;-76
2024/01/14 08:42:51;;;;;;;2.20;1.40;;;;;;;1.85;88.82;92109.63;5025731;28;20493;-77
2024/01/14 08:45:17;;;;;;;3.08;1.70;;;;;;;1.86;89.81;92116.34;5023760;28;20090;-77
2024/01/14 08:47:43;;;;;;;3.20;1.60;;;;;;;1.87;90.71;92120.50;5024744;28;20060;-77
2024/01/14 08:50:09;;;;;;;2.70;1.70;;;;;;;1.84;92.05;92113.22;5024550;28;20413;-76
2024/01/14 08:52:39;;;;;;;3.17;1.70;;;;;;;1.82;91.91;92109.31;5020884;28;20463;-76
2024/01/14 08:55:05;;;;;;;2.78;1.80;;;;;;;1.87;92.50;92117.16;5024674;28;20088;-76
2024/01/14 08:57:31;;;;;;;2.90;1.77;;;;;;;1.86;92.97;92121.50;5026288;28;20481;-77
2024/01/14 08:59:57;;;;;;;3.25;1.67;;;;;;;1.87;93.95;92117.91;5027266;28;20113;-76
2024/01/14 09:02:23;;;;;;;3.60;1.80;;;;;;;1.90;93.31;92118.47;5024592;28;20029;-76
2024/01/14 09:04:48;;;;;;;3.40;1.85;;;;;;;1.92;92.85;92113.84;5025745;28;20136;-75
2024/01/14 09:07:14;;;;;;;3.55;2.00;;;;;;;1.92;93.51;92113.84;5025387;28;20311;-75
2024/01/14 09:09:39;;;;;;;4.55;1.98;;;;;;;1.96;88.11;92120.06;5025239;28;20057;-76
2024/01/14 09:12:05;;;;;;;3.38;1.90;;;;;;;1.98;87.55;92118.00;5024634;28;20037;-76
2024/01/14 09:14:31;;;;;;;3.65;1.90;;;;;;;2.02;86.29;92113.94;5025829;28;20025;-76
2024/01/14 09:16:57;;;;;;;4.55;2.20;;;;;;;2.04;88.43;92112.66;5026590;28;20060;-76
2024/01/14 09:19:24;;;;;;;3.42;2.35;;;;;;;2.03;91.87;92107.75;5024690;28;20378;-75
2024/01/14 09:21:49;;;;;;;4.38;2.20;;;;;;;2.02;90.37;92114.69;5025292;28;20045;-75
2024/01/14 09:24:15;;;;;;;4.57;2.70;;;;;;;2.05;89.09;92121.22;5023850;28;20236;-79
2024/01/14 09:26:40;;;;;;;5.05;2.53;;;;;;;2.04;89.04;92117.06;5005550;28;20033;-77
2024/01/14 09:29:06;;;;;;;3.85;1.95;;;;;;;2.04;90.31;92117.06;5025315;28;20037;-77
2024/01/14 09:31:32;;;;;;;3.65;2.15;;;;;;;2.04;90.60;92132.53;5023069;28;20164;-75
2024/01/14 09:33:57;;;;;;;3.40;1.90;;;;;;;2.04;92.69;92132.53;5025268;28;20037;-77
2024/01/14 09:36:23;;;;;;;4.40;2.30;;;;;;;2.05;92.83;92129.72;5024671;28;20029;-76
2024/01/14 09:38:48;;;;;;;3.83;2.25;;;;;;;2.02;92.96;92135.34;5026832;28;20508;-77
2024/01/14 09:41:43;;;;;;;4.70;2.22;;;;;;;2.03;92.03;92128.41;5024936;28;20033;-76
2024/01/14 09:44:14;;;;;;;4.78;2.45;;;;;;;2.05;92.71;92128.97;5027133;28;20132;-76
2024/01/14 09:46:40;;;;;;;4.95;2.60;;;;;;;2.08;92.22;92128.47;5024813;28;20057;-77
2024/01/14 09:49:10;;;;;;;4.30;2.38;;;;;;;2.10;95.63;92141.91;5023714;28;20037;-76
2024/01/14 09:51:36;;;;;;;4.07;2.30;;;;;;;2.12;96.32;92129.53;5022968;28;20041;-76
2024/01/14 09:54:02;;;;;;;3.45;2.00;;;;;;;2.15;89.56;92128.28;5025931;28;20025;-76
2024/01/14 09:56:31;;;;;;;4.70;2.30;;;;;;;2.20;90.69;92129.09;5024544;28;20168;-76
2024/01/14 09:58:58;;;;;;;3.80;2.10;;;;;;;2.23;91.59;92120.88;5023688;28;20330;-76
2024/01/14 10:01:30;;;;;;;4.35;2.60;;;;;;;2.27;95.40;92127.13;5026691;28;20033;-78
2024/01/14 10:03:59;;;;;;;7.75;2.33;;;;;;;2.34;97.03;92126.13;5019409;28;20108;-77
2024/01/14 10:06:25;;;;;;;4.30;2.40;;;;;;;2.37;97.53;92118.69;5003538;28;20362;-78
2024/01/14 10:08:50;;;;;;;3.90;2.40;;;;;;;2.43;97.69;92119.47;5026988;28;20053;-77
2024/01/14 10:11:16;;;;;;;4.35;2.50;;;;;;;2.46;99.92;92113.84;5023497;28;20033;-77
2024/01/14 10:13:41;;;;;;;3.78;2.15;;;;;;;2.56;100.00;92107.97;5022669;28;20045;-79
2024/01/14 10:16:07;;;;;;;4.70;2.40;;;;;;;2.63;100.00;92109.31;5022495;28;20148;-75
2024/01/14 10:18:36;;;;;;;5.28;2.20;;;;;;;2.72;100.00;92104.47;5021405;28;20041;-75
2024/01/14 10:21:01;;;;;;;5.07;2.40;;;;;;;2.79;100.00;92104.28;5020622;28;20062;-76
2024/01/14 10:23:27;;;;;;;4.53;2.28;;;;;;;2.83;100.00;92098.38;5021401;28;20042;-76
2024/01/14 10:25:54;;;;;;;3.70;2.05;;;;;;;2.90;100.00;92093.78;5017553;28;20033;-76
2024/01/14 10:28:20;;;;;;;5.35;2.00;;;;;;;3.01;100.00;92101.59;5019025;28;20462;-76
2024/01/14 10:30:48;;;;;;;4.43;2.05;;;;;;;3.10;100.00;92098.28;5020835;28;20083;-77
2024/01/14 10:33:14;;;;;;;7.45;2.33;;;;;;;3.18;100.00;92083.34;5022055;28;20048;-77
2024/01/14 10:35:39;;;;;;;5.18;2.50;;;;;;;3.24;100.00;92083.13;5018117;28;20025;-76
2024/01/14 10:38:05;;;;;;;3.88;2.17;;;;;;;3.32;100.00;92079.28;5006721;28;20045;-76
2024/01/14 10:40:31;;;;;;;4.18;2.30;;;;;;;3.39;100.00;92072.06;5010108;28;20040;-76
2024/01/14 10:42:57;;;;;;;4.22;2.42;;;;;;;3.46;100.00;92075.19;5014112;28;20056;-77
2024/01/14 10:45:23;;;;;;;5.35;2.60;;;;;;;3.49;100.00;92077.28;5013794;28;20041;-77
2024/01/14 10:47:54;;;;;;;4.22;2.40;;;;;;;3.48;100.00;92073.13;5011450;28;20029;-76
2024/01/14 10:50:23;;;;;;;3.45;2.20;;;;;;;3.44;97.33;92072.06;5010692;28;20393;-76
2024/01/14 10:52:54;;;;;;;3.28;1.95;;;;;;;3.50;95.03;92070.31;5012369;28;20037;-77
2024/01/14 10:55:42;;;;;;;3.33;2.03;;;;;;;3.47;95.55;92061.25;5012320;28;20048;-76
2024/01/14 10:58:16;;;;;;;19.77;12.52;;;;;;;3.45;100.00;92052.94;5016752;28;20155;-76
2024/01/14 11:00:44;;;;;;;13.77;7.32;;;;;;;3.52;100.00;92053.50;5015381;28;20117;-77
2024/01/14 11:03:10;;;;;;;15.40;10.02;;;;;;;3.58;100.00;92048.31;5013513;28;20037;-77
2024/01/14 11:05:36;;;;;;;13.15;7.43;;;;;;;3.61;100.00;92040.06;5013700;28;20551;-78
2024/01/14 11:08:03;;;;;;;5.90;3.60;;;;;;;3.67;100.00;92044.22;5011494;28;20034;-77
2024/01/14 11:10:30;;;;;;;4.68;2.75;;;;;;;3.69;100.00;92036.97;5012064;28;20041;-77
2024/01/14 11:13:10;;;;;;;3.63;2.25;;;;;;;3.75;100.00;92028.19;5012565;28;20049;-76
2024/01/14 11:15:44;;;;;;;5.03;2.70;;;;;;;3.75;100.00;92031.56;5013145;28;20091;-76
2024/01/14 11:18:26;;;;;;;4.47;2.45;;;;;;;3.82;100.00;92025.38;5021321;28;20539;-77
2024/01/14 11:21:19;;;;;;;5.13;2.40;;;;;;;3.81;100.00;92027.19;5014944;28;20425;-77
2024/01/14 11:23:45;;;;;;;4.47;2.30;;;;;;;3.80;100.00;92023.03;5016605;28;20034;-77
2024/01/14 11:26:10;;;;;;;4.88;2.70;;;;;;;3.78;100.00;92017.31;5017911;28;20092;-76